sensor_id;sensor_type;location;lat;lon;timestamp;pressure;altitude;pressure_sealevel;temperature;humidity
55687;BME280;41911;52.362;4.978;2023-02-25T00:01:27;100856.94;;;3.43;48.09
55687;BME280;41911;52.362;4.978;2023-02-25T00:01:59;100854.08;;;3.70;47.92
55687;BME280;41911;52.362;4.978;2023-02-25T00:02:30;100852.86;;;3.71;47.96
55687;BME280;41911;52.362;4.978;2023-02-25T00:03:01;100849.91;;;3.78;47.79
55687;BME280;41911;52.362;4.978;2023-02-25T00:03:34;100846.09;;;3.77;47.65
55687;BME280;41911;52.362;4.978;2023-02-25T00:04:05;100852.00;;;3.78;47.72
55687;BME280;41911;52.362;4.978;2023-02-25T00:04:36;100849.00;;;3.89;47.71
55687;BME280;41911;52.362;4.978;2023-02-25T00:05:09;100849.73;;;3.33;48.76
55687;BME280;41911;52.362;4.978;2023-02-25T00:05:40;100849.04;;;3.37;48.48
55687;BME280;41911;52.362;4.978;2023-02-25T00:06:12;100845.34;;;3.95;48.05
55687;BME280;41911;52.362;4.978;2023-02-25T00:06:44;100846.53;;;3.84;47.71
55687;BME280;41911;52.362;4.978;2023-02-25T00:07:15;100849.59;;;3.93;47.75
55687;BME280;41911;52.362;4.978;2023-02-25T00:07:46;100847.16;;;3.99;47.70
55687;BME280;41911;52.362;4.978;2023-02-25T00:08:17;100844.41;;;4.18;47.62
55687;BME280;41911;52.362;4.978;2023-02-25T00:08:49;100841.74;;;3.78;47.57
55687;BME280;41911;52.362;4.978;2023-02-25T00:09:20;100844.18;;;3.67;47.50
55687;BME280;41911;52.362;4.978;2023-02-25T00:09:51;100843.75;;;3.90;47.47
55687;BME280;41911;52.362;4.978;2023-02-25T00:10:22;100842.13;;;3.72;47.78
55687;BME280;41911;52.362;4.978;2023-02-25T00:10:57;100849.68;;;3.52;47.82
55687;BME280;41911;52.362;4.978;2023-02-25T00:11:28;100841.90;;;3.69;47.78
55687;BME280;41911;52.362;4.978;2023-02-25T00:11:59;100841.03;;;3.31;48.20
55687;BME280;41911;52.362;4.978;2023-02-25T00:12:30;100838.29;;;2.99;48.79
55687;BME280;41911;52.362;4.978;2023-02-25T00:13:03;100841.53;;;3.32;48.36
55687;BME280;41911;52.362;4.978;2023-02-25T00:13:35;100841.03;;;3.27;47.96
55687;BME280;41911;52.362;4.978;2023-02-25T00:14:08;100841.55;;;3.87;47.62
55687;BME280;41911;52.362;4.978;2023-02-25T00:14:39;100838.68;;;3.62;47.53
55687;BME280;41911;52.362;4.978;2023-02-25T00:15:10;100837.63;;;3.67;47.25
55687;BME280;41911;52.362;4.978;2023-02-25T00:15:41;100838.75;;;3.50;47.52
55687;BME280;41911;52.362;4.978;2023-02-25T00:16:13;100835.15;;;3.43;47.87
55687;BME280;41911;52.362;4.978;2023-02-25T00:16:44;100836.28;;;3.61;47.88
55687;BME280;41911;52.362;4.978;2023-02-25T00:17:15;100835.83;;;3.36;47.90
55687;BME280;41911;52.362;4.978;2023-02-25T00:17:46;100835.40;;;3.43;47.86
55687;BME280;41911;52.362;4.978;2023-02-25T00:18:18;100833.30;;;3.30;48.03
55687;BME280;41911;52.362;4.978;2023-02-25T00:18:55;100832.72;;;3.19;48.12
55687;BME280;41911;52.362;4.978;2023-02-25T00:19:26;100839.18;;;3.55;47.72
55687;BME280;41911;52.362;4.978;2023-02-25T00:19:58;100839.30;;;3.38;47.64
55687;BME280;41911;52.362;4.978;2023-02-25T00:20:29;100838.86;;;3.46;47.72
55687;BME280;41911;52.362;4.978;2023-02-25T00:21:04;100840.75;;;3.63;47.50
55687;BME280;41911;52.362;4.978;2023-02-25T00:21:35;100838.72;;;4.14;47.20
55687;BME280;41911;52.362;4.978;2023-02-25T00:22:06;100838.15;;;3.32;47.92
55687;BME280;41911;52.362;4.978;2023-02-25T00:22:37;100840.27;;;3.48;47.90
55687;BME280;41911;52.362;4.978;2023-02-25T00:23:09;100838.64;;;4.01;47.58
55687;BME280;41911;52.362;4.978;2023-02-25T00:23:41;100843.40;;;3.68;47.67
55687;BME280;41911;52.362;4.978;2023-02-25T00:24:12;100841.62;;;3.45;47.95
55687;BME280;41911;52.362;4.978;2023-02-25T00:24:43;100841.44;;;2.97;48.65
55687;BME280;41911;52.362;4.978;2023-02-25T00:25:14;100839.00;;;2.84;49.05
55687;BME280;41911;52.362;4.978;2023-02-25T00:25:46;100846.42;;;3.14;49.50
55687;BME280;41911;52.362;4.978;2023-02-25T00:26:17;100841.56;;;3.22;49.05
55687;BME280;41911;52.362;4.978;2023-02-25T00:26:48;100843.29;;;3.12;49.01
55687;BME280;41911;52.362;4.978;2023-02-25T00:27:20;100842.74;;;2.76;49.46
55687;BME280;41911;52.362;4.978;2023-02-25T00:27:51;100846.01;;;2.84;49.58
55687;BME280;41911;52.362;4.978;2023-02-25T00:28:22;100838.90;;;3.16;49.50
55687;BME280;41911;52.362;4.978;2023-02-25T00:28:53;100840.74;;;3.27;49.48
55687;BME280;41911;52.362;4.978;2023-02-25T00:29:24;100840.87;;;3.53;49.05
55687;BME280;41911;52.362;4.978;2023-02-25T00:29:55;100841.10;;;3.78;48.90
55687;BME280;41911;52.362;4.978;2023-02-25T00:30:26;100845.69;;;3.18;49.25
55687;BME280;41911;52.362;4.978;2023-02-25T00:30:57;100842.47;;;3.55;49.19
55687;BME280;41911;52.362;4.978;2023-02-25T00:31:28;100844.27;;;2.99;49.88
55687;BME280;41911;52.362;4.978;2023-02-25T00:31:59;100839.77;;;3.47;49.61
55687;BME280;41911;52.362;4.978;2023-02-25T00:32:30;100839.52;;;3.43;49.35
55687;BME280;41911;52.362;4.978;2023-02-25T00:33:01;100834.57;;;2.87;50.23
55687;BME280;41911;52.362;4.978;2023-02-25T00:33:32;100837.85;;;3.06;50.06
55687;BME280;41911;52.362;4.978;2023-02-25T00:34:03;100840.14;;;2.95;50.69
55687;BME280;41911;52.362;4.978;2023-02-25T00:34:34;100843.45;;;2.91;50.91
55687;BME280;41911;52.362;4.978;2023-02-25T00:35:06;100840.14;;;3.21;50.41
55687;BME280;41911;52.362;4.978;2023-02-25T00:35:38;100845.83;;;2.96;50.51
55687;BME280;41911;52.362;4.978;2023-02-25T00:36:12;100843.78;;;3.30;50.38
55687;BME280;41911;52.362;4.978;2023-02-25T00:36:43;100843.84;;;3.13;50.57
55687;BME280;41911;52.362;4.978;2023-02-25T00:37:14;100844.38;;;3.51;50.07
55687;BME280;41911;52.362;4.978;2023-02-25T00:37:45;100842.54;;;3.43;50.11
55687;BME280;41911;52.362;4.978;2023-02-25T00:38:16;100846.39;;;3.66;49.79
55687;BME280;41911;52.362;4.978;2023-02-25T00:38:50;100849.37;;;3.51;49.57
55687;BME280;41911;52.362;4.978;2023-02-25T00:39:21;100850.37;;;3.63;49.48
55687;BME280;41911;52.362;4.978;2023-02-25T00:39:54;100851.75;;;4.28;49.29
55687;BME280;41911;52.362;4.978;2023-02-25T00:40:25;100849.26;;;3.74;49.05
55687;BME280;41911;52.362;4.978;2023-02-25T00:40:57;100854.11;;;3.70;48.96
55687;BME280;41911;52.362;4.978;2023-02-25T00:41:28;100853.52;;;3.92;49.15
55687;BME280;41911;52.362;4.978;2023-02-25T00:41:59;100851.92;;;3.19;50.12
55687;BME280;41911;52.362;4.978;2023-02-25T00:42:30;100856.63;;;3.08;50.51
55687;BME280;41911;52.362;4.978;2023-02-25T00:43:01;100855.50;;;3.04;50.35
55687;BME280;41911;52.362;4.978;2023-02-25T00:43:32;100855.28;;;3.40;49.60
55687;BME280;41911;52.362;4.978;2023-02-25T00:44:04;100850.55;;;3.66;49.56
55687;BME280;41911;52.362;4.978;2023-02-25T00:44:36;100850.47;;;3.34;49.56
55687;BME280;41911;52.362;4.978;2023-02-25T00:45:08;100852.09;;;3.68;49.16
55687;BME280;41911;52.362;4.978;2023-02-25T00:45:39;100848.16;;;3.25;49.69
55687;BME280;41911;52.362;4.978;2023-02-25T00:46:11;100851.39;;;3.84;49.29
55687;BME280;41911;52.362;4.978;2023-02-25T00:46:42;100851.11;;;3.55;49.23
55687;BME280;41911;52.362;4.978;2023-02-25T00:47:15;100853.31;;;3.96;48.68
55687;BME280;41911;52.362;4.978;2023-02-25T00:47:46;100852.61;;;3.56;48.94
55687;BME280;41911;52.362;4.978;2023-02-25T00:48:18;100856.82;;;3.53;49.12
55687;BME280;41911;52.362;4.978;2023-02-25T00:48:51;100853.08;;;3.36;49.13
55687;BME280;41911;52.362;4.978;2023-02-25T00:49:22;100850.67;;;3.40;49.51
55687;BME280;41911;52.362;4.978;2023-02-25T00:49:53;100850.72;;;3.25;49.42
55687;BME280;41911;52.362;4.978;2023-02-25T00:50:25;100854.69;;;3.85;48.93
55687;BME280;41911;52.362;4.978;2023-02-25T00:50:56;100856.34;;;3.52;48.81
55687;BME280;41911;52.362;4.978;2023-02-25T00:51:29;100858.85;;;3.71;48.57
55687;BME280;41911;52.362;4.978;2023-02-25T00:52:00;100855.62;;;3.72;48.52
55687;BME280;41911;52.362;4.978;2023-02-25T00:52:32;100858.27;;;3.43;48.81
55687;BME280;41911;52.362;4.978;2023-02-25T00:53:03;100857.95;;;3.40;48.89
55687;BME280;41911;52.362;4.978;2023-02-25T00:53:35;100859.75;;;3.77;48.54
55687;BME280;41911;52.362;4.978;2023-02-25T00:54:06;100858.24;;;3.73;48.48
55687;BME280;41911;52.362;4.978;2023-02-25T00:54:37;100857.58;;;3.81;48.47
55687;BME280;41911;52.362;4.978;2023-02-25T00:55:09;100855.95;;;4.35;48.14
55687;BME280;41911;52.362;4.978;2023-02-25T00:55:40;100856.21;;;4.26;47.89
55687;BME280;41911;52.362;4.978;2023-02-25T00:56:13;100854.56;;;3.93;47.88
55687;BME280;41911;52.362;4.978;2023-02-25T00:56:44;100850.28;;;3.72;48.05
55687;BME280;41911;52.362;4.978;2023-02-25T00:57:15;100852.64;;;4.18;47.98
55687;BME280;41911;52.362;4.978;2023-02-25T00:57:46;100856.47;;;4.20;47.89
55687;BME280;41911;52.362;4.978;2023-02-25T00:58:17;100857.02;;;3.96;47.95
55687;BME280;41911;52.362;4.978;2023-02-25T00:58:50;100857.88;;;3.28;48.63
55687;BME280;41911;52.362;4.978;2023-02-25T00:59:21;100857.05;;;3.63;48.77
55687;BME280;41911;52.362;4.978;2023-02-25T00:59:52;100852.84;;;3.39;48.93
55687;BME280;41911;52.362;4.978;2023-02-25T01:00:23;100856.21;;;3.17;48.93
55687;BME280;41911;52.362;4.978;2023-02-25T01:00:54;100851.51;;;3.08;49.32
55687;BME280;41911;52.362;4.978;2023-02-25T01:01:27;100853.34;;;3.40;49.53
55687;BME280;41911;52.362;4.978;2023-02-25T01:01:59;100855.89;;;3.66;48.80
55687;BME280;41911;52.362;4.978;2023-02-25T01:02:30;100855.91;;;3.48;48.87
55687;BME280;41911;52.362;4.978;2023-02-25T01:03:01;100852.55;;;3.40;49.12
55687;BME280;41911;52.362;4.978;2023-02-25T01:03:32;100856.50;;;3.74;48.55
55687;BME280;41911;52.362;4.978;2023-02-25T01:04:03;100857.40;;;3.84;48.35
55687;BME280;41911;52.362;4.978;2023-02-25T01:04:34;100859.68;;;3.49;48.79
55687;BME280;41911;52.362;4.978;2023-02-25T01:05:06;100850.18;;;2.92;49.45
55687;BME280;41911;52.362;4.978;2023-02-25T01:05:39;100857.42;;;3.00;49.90
55687;BME280;41911;52.362;4.978;2023-02-25T01:06:10;100856.89;;;3.14;49.37
55687;BME280;41911;52.362;4.978;2023-02-25T01:06:42;100857.20;;;3.50;49.27
55687;BME280;41911;52.362;4.978;2023-02-25T01:07:14;100862.61;;;3.54;48.87
55687;BME280;41911;52.362;4.978;2023-02-25T01:07:45;100859.00;;;3.47;48.95
55687;BME280;41911;52.362;4.978;2023-02-25T01:08:16;100865.85;;;3.63;48.70
55687;BME280;41911;52.362;4.978;2023-02-25T01:08:48;100864.08;;;3.84;48.35
55687;BME280;41911;52.362;4.978;2023-02-25T01:09:19;100866.14;;;3.12;49.25
55687;BME280;41911;52.362;4.978;2023-02-25T01:09:54;100865.67;;;3.35;49.51
55687;BME280;41911;52.362;4.978;2023-02-25T01:10:25;100865.34;;;2.95;49.91
55687;BME280;41911;52.362;4.978;2023-02-25T01:10:57;100869.89;;;2.83;49.95
55687;BME280;41911;52.362;4.978;2023-02-25T01:11:30;100874.32;;;2.67;50.28
55687;BME280;41911;52.362;4.978;2023-02-25T01:12:02;100875.54;;;2.85;50.36
55687;BME280;41911;52.362;4.978;2023-02-25T01:12:33;100876.15;;;2.86;50.49
55687;BME280;41911;52.362;4.978;2023-02-25T01:13:04;100878.96;;;2.67;50.94
55687;BME280;41911;52.362;4.978;2023-02-25T01:13:36;100881.43;;;3.51;50.10
55687;BME280;41911;52.362;4.978;2023-02-25T01:14:10;100882.21;;;3.46;49.70
55687;BME280;41911;52.362;4.978;2023-02-25T01:14:42;100877.13;;;3.02;49.83
55687;BME280;41911;52.362;4.978;2023-02-25T01:15:13;100890.08;;;3.11;50.30
55687;BME280;41911;52.362;4.978;2023-02-25T01:15:44;100883.22;;;3.03;50.45
55687;BME280;41911;52.362;4.978;2023-02-25T01:16:17;100882.41;;;2.86;50.61
55687;BME280;41911;52.362;4.978;2023-02-25T01:16:49;100880.32;;;3.43;50.24
55687;BME280;41911;52.362;4.978;2023-02-25T01:17:20;100877.33;;;3.42;49.83
55687;BME280;41911;52.362;4.978;2023-02-25T01:17:51;100881.75;;;3.57;50.03
55687;BME280;41911;52.362;4.978;2023-02-25T01:18:22;100884.17;;;3.21;50.10
55687;BME280;41911;52.362;4.978;2023-02-25T01:18:55;100878.52;;;3.47;49.98
55687;BME280;41911;52.362;4.978;2023-02-25T01:19:27;100877.56;;;3.57;49.13
55687;BME280;41911;52.362;4.978;2023-02-25T01:19:59;100883.01;;;3.05;50.17
55687;BME280;41911;52.362;4.978;2023-02-25T01:20:30;100889.56;;;2.91;50.30
55687;BME280;41911;52.362;4.978;2023-02-25T01:21:01;100886.55;;;3.04;50.39
55687;BME280;41911;52.362;4.978;2023-02-25T01:21:34;100886.14;;;3.47;49.96
55687;BME280;41911;52.362;4.978;2023-02-25T01:22:06;100884.73;;;3.61;50.11
55687;BME280;41911;52.362;4.978;2023-02-25T01:22:37;100891.00;;;3.15;50.34
55687;BME280;41911;52.362;4.978;2023-02-25T01:23:08;100888.54;;;3.54;50.24
55687;BME280;41911;52.362;4.978;2023-02-25T01:23:40;100881.55;;;3.29;50.05
55687;BME280;41911;52.362;4.978;2023-02-25T01:24:12;100892.42;;;3.24;50.23
55687;BME280;41911;52.362;4.978;2023-02-25T01:24:44;100885.61;;;3.61;49.68
55687;BME280;41911;52.362;4.978;2023-02-25T01:25:15;100887.71;;;3.62;49.72
55687;BME280;41911;52.362;4.978;2023-02-25T01:25:46;100887.98;;;3.88;49.39
55687;BME280;41911;52.362;4.978;2023-02-25T01:26:18;100888.13;;;4.04;49.48
55687;BME280;41911;52.362;4.978;2023-02-25T01:26:51;100897.65;;;3.61;49.71
55687;BME280;41911;52.362;4.978;2023-02-25T01:27:22;100895.88;;;3.94;49.43
55687;BME280;41911;52.362;4.978;2023-02-25T01:27:54;100899.32;;;3.97;49.56
55687;BME280;41911;52.362;4.978;2023-02-25T01:28:25;100903.54;;;3.69;49.70
55687;BME280;41911;52.362;4.978;2023-02-25T01:28:56;100902.73;;;3.80;49.81
55687;BME280;41911;52.362;4.978;2023-02-25T01:29:30;100899.87;;;3.89;49.60
55687;BME280;41911;52.362;4.978;2023-02-25T01:30:01;100894.61;;;2.68;50.97
55687;BME280;41911;52.362;4.978;2023-02-25T01:30:34;100895.68;;;2.82;51.80
55687;BME280;41911;52.362;4.978;2023-02-25T01:31:06;100893.97;;;3.35;51.73
55687;BME280;41911;52.362;4.978;2023-02-25T01:31:38;100891.36;;;3.10;51.87
55687;BME280;41911;52.362;4.978;2023-02-25T01:32:12;100889.52;;;3.12;52.04
55687;BME280;41911;52.362;4.978;2023-02-25T01:32:45;100887.25;;;3.42;51.34
55687;BME280;41911;52.362;4.978;2023-02-25T01:33:16;100884.92;;;3.60;51.45
55687;BME280;41911;52.362;4.978;2023-02-25T01:33:47;100886.38;;;3.65;51.42
55687;BME280;41911;52.362;4.978;2023-02-25T01:34:18;100889.04;;;3.09;51.71
55687;BME280;41911;52.362;4.978;2023-02-25T01:34:49;100892.39;;;2.57;52.81
55687;BME280;41911;52.362;4.978;2023-02-25T01:35:20;100892.74;;;2.47;52.68
55687;BME280;41911;52.362;4.978;2023-02-25T01:35:51;100888.61;;;3.08;52.17
55687;BME280;41911;52.362;4.978;2023-02-25T01:36:22;100886.58;;;3.03;51.74
55687;BME280;41911;52.362;4.978;2023-02-25T01:36:53;100885.68;;;3.71;51.33
55687;BME280;41911;52.362;4.978;2023-02-25T01:37:24;100886.12;;;3.19;51.52
55687;BME280;41911;52.362;4.978;2023-02-25T01:37:55;100888.85;;;3.59;51.51
55687;BME280;41911;52.362;4.978;2023-02-25T01:38:26;100886.23;;;3.55;51.32
55687;BME280;41911;52.362;4.978;2023-02-25T01:38:59;100887.59;;;3.61;51.38
55687;BME280;41911;52.362;4.978;2023-02-25T01:39:31;100882.91;;;3.69;51.13
55687;BME280;41911;52.362;4.978;2023-02-25T01:40:03;100883.27;;;2.91;51.35
55687;BME280;41911;52.362;4.978;2023-02-25T01:40:34;100882.54;;;3.28;51.36
55687;BME280;41911;52.362;4.978;2023-02-25T01:41:05;100880.97;;;3.39;51.11
55687;BME280;41911;52.362;4.978;2023-02-25T01:41:38;100888.92;;;3.55;50.78
55687;BME280;41911;52.362;4.978;2023-02-25T01:42:14;100880.47;;;3.20;51.00
55687;BME280;41911;52.362;4.978;2023-02-25T01:42:45;100878.45;;;3.64;51.07
55687;BME280;41911;52.362;4.978;2023-02-25T01:43:17;100878.97;;;3.69;50.27
55687;BME280;41911;52.362;4.978;2023-02-25T01:44:09;100878.83;;;3.68;50.47
55687;BME280;41911;52.362;4.978;2023-02-25T01:45:23;100876.96;;;4.37;50.01
55687;BME280;41911;52.362;4.978;2023-02-25T01:45:55;100877.48;;;3.84;49.61
55687;BME280;41911;52.362;4.978;2023-02-25T01:46:28;100879.43;;;3.78;49.70
55687;BME280;41911;52.362;4.978;2023-02-25T01:46:59;100875.21;;;3.92;49.45
55687;BME280;41911;52.362;4.978;2023-02-25T01:47:35;100880.66;;;4.02;49.34
55687;BME280;41911;52.362;4.978;2023-02-25T01:48:14;100878.60;;;4.36;49.26
55687;BME280;41911;52.362;4.978;2023-02-25T01:48:46;100876.17;;;3.88;49.58
55687;BME280;41911;52.362;4.978;2023-02-25T01:49:21;100880.80;;;3.65;50.26
55687;BME280;41911;52.362;4.978;2023-02-25T01:49:54;100875.48;;;3.18;50.83
55687;BME280;41911;52.362;4.978;2023-02-25T01:50:31;100876.17;;;3.50;50.35
55687;BME280;41911;52.362;4.978;2023-02-25T01:51:07;100875.28;;;3.74;49.61
55687;BME280;41911;52.362;4.978;2023-02-25T01:51:41;100877.40;;;3.49;49.75
55687;BME280;41911;52.362;4.978;2023-02-25T01:52:15;100876.64;;;3.77;49.97
55687;BME280;41911;52.362;4.978;2023-02-25T01:52:48;100876.65;;;4.40;49.60
55687;BME280;41911;52.362;4.978;2023-02-25T01:53:24;100877.95;;;4.13;49.04
55687;BME280;41911;52.362;4.978;2023-02-25T01:53:57;100878.86;;;4.33;48.69
55687;BME280;41911;52.362;4.978;2023-02-25T01:54:29;100875.49;;;4.24;48.85
55687;BME280;41911;52.362;4.978;2023-02-25T01:55:03;100873.01;;;3.82;48.39
55687;BME280;41911;52.362;4.978;2023-02-25T01:55:34;100874.86;;;3.90;48.43
55687;BME280;41911;52.362;4.978;2023-02-25T01:56:06;100873.08;;;4.08;48.55
55687;BME280;41911;52.362;4.978;2023-02-25T01:56:40;100872.46;;;3.65;48.62
55687;BME280;41911;52.362;4.978;2023-02-25T01:57:15;100873.40;;;4.46;48.06
55687;BME280;41911;52.362;4.978;2023-02-25T01:57:47;100872.39;;;4.45;47.91
55687;BME280;41911;52.362;4.978;2023-02-25T01:58:19;100872.21;;;4.08;48.28
55687;BME280;41911;52.362;4.978;2023-02-25T01:58:52;100877.34;;;3.81;48.90
55687;BME280;41911;52.362;4.978;2023-02-25T01:59:26;100874.21;;;4.12;48.63
55687;BME280;41911;52.362;4.978;2023-02-25T01:59:58;100872.78;;;4.07;48.68
55687;BME280;41911;52.362;4.978;2023-02-25T02:00:30;100870.90;;;4.34;48.29
55687;BME280;41911;52.362;4.978;2023-02-25T02:01:02;100877.29;;;4.02;48.51
55687;BME280;41911;52.362;4.978;2023-02-25T02:01:36;100873.10;;;3.43;48.62
55687;BME280;41911;52.362;4.978;2023-02-25T02:02:11;100876.88;;;3.52;48.48
55687;BME280;41911;52.362;4.978;2023-02-25T02:02:45;100872.79;;;3.72;48.13
55687;BME280;41911;52.362;4.978;2023-02-25T02:03:17;100874.80;;;3.99;48.14
55687;BME280;41911;52.362;4.978;2023-02-25T02:03:50;100875.58;;;4.38;47.72
55687;BME280;41911;52.362;4.978;2023-02-25T02:04:22;100878.06;;;3.61;48.03
55687;BME280;41911;52.362;4.978;2023-02-25T02:04:54;100872.02;;;4.21;48.17
55687;BME280;41911;52.362;4.978;2023-02-25T02:05:44;100876.92;;;3.94;47.57
55687;BME280;41911;52.362;4.978;2023-02-25T02:06:22;100877.56;;;4.14;47.50
55687;BME280;41911;52.362;4.978;2023-02-25T02:06:57;100876.37;;;3.95;48.18
55687;BME280;41911;52.362;4.978;2023-02-25T02:07:28;100875.64;;;4.33;48.11
55687;BME280;41911;52.362;4.978;2023-02-25T02:07:59;100877.63;;;3.66;48.42
55687;BME280;41911;52.362;4.978;2023-02-25T02:08:32;100878.83;;;3.71;48.14
55687;BME280;41911;52.362;4.978;2023-02-25T02:09:07;100875.18;;;4.03;48.48
55687;BME280;41911;52.362;4.978;2023-02-25T02:09:39;100874.40;;;3.69;48.81
55687;BME280;41911;52.362;4.978;2023-02-25T02:10:11;100869.22;;;3.76;48.59
55687;BME280;41911;52.362;4.978;2023-02-25T02:10:42;100865.58;;;3.60;48.97
55687;BME280;41911;52.362;4.978;2023-02-25T02:11:13;100867.76;;;3.58;48.93
55687;BME280;41911;52.362;4.978;2023-02-25T02:11:44;100867.28;;;3.25;49.58
55687;BME280;41911;52.362;4.978;2023-02-25T02:12:15;100866.30;;;3.22;49.93
55687;BME280;41911;52.362;4.978;2023-02-25T02:12:46;100862.70;;;3.08;49.90
55687;BME280;41911;52.362;4.978;2023-02-25T02:13:18;100864.50;;;2.99;50.23
55687;BME280;41911;52.362;4.978;2023-02-25T02:13:55;100864.20;;;3.01;50.03
55687;BME280;41911;52.362;4.978;2023-02-25T02:14:30;100862.45;;;3.59;49.34
55687;BME280;41911;52.362;4.978;2023-02-25T02:15:06;100859.98;;;3.47;49.19
55687;BME280;41911;52.362;4.978;2023-02-25T02:15:46;100863.78;;;3.87;48.99
55687;BME280;41911;52.362;4.978;2023-02-25T02:16:36;100861.63;;;3.88;48.95
55687;BME280;41911;52.362;4.978;2023-02-25T02:17:17;100863.80;;;4.07;48.34
55687;BME280;41911;52.362;4.978;2023-02-25T02:17:54;100861.67;;;4.24;48.12
55687;BME280;41911;52.362;4.978;2023-02-25T02:18:28;100860.80;;;3.69;48.18
55687;BME280;41911;52.362;4.978;2023-02-25T02:19:15;100863.88;;;3.87;47.62
55687;BME280;41911;52.362;4.978;2023-02-25T02:20:03;100873.55;;;3.44;48.56
55687;BME280;41911;52.362;4.978;2023-02-25T02:20:46;100865.45;;;3.44;48.67
55687;BME280;41911;52.362;4.978;2023-02-25T02:21:34;100863.34;;;3.65;48.68
55687;BME280;41911;52.362;4.978;2023-02-25T02:22:14;100864.74;;;3.48;47.90
55687;BME280;41911;52.362;4.978;2023-02-25T02:22:58;100865.20;;;3.98;47.44
55687;BME280;41911;52.362;4.978;2023-02-25T02:23:58;100865.79;;;3.93;47.99
55687;BME280;41911;52.362;4.978;2023-02-25T02:25:02;100862.38;;;4.05;47.94
55687;BME280;41911;52.362;4.978;2023-02-25T02:25:55;100864.39;;;3.68;47.53
55687;BME280;41911;52.362;4.978;2023-02-25T02:26:51;100863.18;;;3.12;48.80
55687;BME280;41911;52.362;4.978;2023-02-25T02:27:29;100865.30;;;3.63;48.42
55687;BME280;41911;52.362;4.978;2023-02-25T02:28:24;100865.78;;;4.00;47.92
55687;BME280;41911;52.362;4.978;2023-02-25T02:31:50;100870.09;;;3.16;49.37
55687;BME280;41911;52.362;4.978;2023-02-25T02:32:31;100866.85;;;3.50;48.71
55687;BME280;41911;52.362;4.978;2023-02-25T02:33:10;100874.27;;;3.60;48.88
55687;BME280;41911;52.362;4.978;2023-02-25T02:33:55;100871.33;;;3.06;48.86
55687;BME280;41911;52.362;4.978;2023-02-25T02:34:40;100873.70;;;3.70;48.35
55687;BME280;41911;52.362;4.978;2023-02-25T02:35:20;100867.85;;;4.34;47.60
55687;BME280;41911;52.362;4.978;2023-02-25T02:35:58;100873.24;;;2.96;49.00
55687;BME280;41911;52.362;4.978;2023-02-25T02:36:39;100869.54;;;3.97;48.24
55687;BME280;41911;52.362;4.978;2023-02-25T02:37:26;100872.89;;;3.32;48.47
55687;BME280;41911;52.362;4.978;2023-02-25T02:38:08;100866.88;;;3.61;48.10
55687;BME280;41911;52.362;4.978;2023-02-25T02:38:52;100869.91;;;3.89;48.19
55687;BME280;41911;52.362;4.978;2023-02-25T02:39:33;100871.46;;;3.53;48.54
55687;BME280;41911;52.362;4.978;2023-02-25T02:40:20;100873.37;;;3.72;48.95
55687;BME280;41911;52.362;4.978;2023-02-25T02:41:01;100872.16;;;3.85;48.63
55687;BME280;41911;52.362;4.978;2023-02-25T02:41:35;100872.44;;;3.76;48.19
55687;BME280;41911;52.362;4.978;2023-02-25T02:42:10;100872.83;;;4.13;48.00
55687;BME280;41911;52.362;4.978;2023-02-25T02:42:54;100877.51;;;4.19;47.90
55687;BME280;41911;52.362;4.978;2023-02-25T02:43:39;100872.24;;;3.90;48.13
55687;BME280;41911;52.362;4.978;2023-02-25T02:44:15;100875.95;;;3.35;48.64
55687;BME280;41911;52.362;4.978;2023-02-25T02:44:55;100874.57;;;3.44;48.52
55687;BME280;41911;52.362;4.978;2023-02-25T02:45:37;100875.63;;;4.12;47.89
55687;BME280;41911;52.362;4.978;2023-02-25T02:46:14;100868.06;;;4.54;47.12
55687;BME280;41911;52.362;4.978;2023-02-25T02:46:54;100870.13;;;4.29;47.56
55687;BME280;41911;52.362;4.978;2023-02-25T02:47:32;100868.48;;;3.13;48.42
55687;BME280;41911;52.362;4.978;2023-02-25T02:48:08;100871.95;;;3.49;48.33
55687;BME280;41911;52.362;4.978;2023-02-25T02:48:43;100871.14;;;3.58;47.88
55687;BME280;41911;52.362;4.978;2023-02-25T02:49:22;100874.82;;;3.29;48.54
55687;BME280;41911;52.362;4.978;2023-02-25T02:50:01;100870.20;;;3.20;48.43
55687;BME280;41911;52.362;4.978;2023-02-25T02:50:37;100870.30;;;3.18;48.34
55687;BME280;41911;52.362;4.978;2023-02-25T02:51:15;100870.59;;;3.79;47.97
55687;BME280;41911;52.362;4.978;2023-02-25T02:51:53;100872.10;;;3.18;48.56
55687;BME280;41911;52.362;4.978;2023-02-25T02:52:29;100871.71;;;3.67;47.77
55687;BME280;41911;52.362;4.978;2023-02-25T02:53:07;100871.52;;;4.04;47.34
55687;BME280;41911;52.362;4.978;2023-02-25T02:53:45;100879.79;;;4.02;46.87
55687;BME280;41911;52.362;4.978;2023-02-25T02:54:20;100872.31;;;3.60;47.29
55687;BME280;41911;52.362;4.978;2023-02-25T02:54:55;100871.86;;;3.65;47.36
55687;BME280;41911;52.362;4.978;2023-02-25T02:55:32;100875.85;;;4.10;46.84
55687;BME280;41911;52.362;4.978;2023-02-25T02:56:07;100871.25;;;4.03;46.72
55687;BME280;41911;52.362;4.978;2023-02-25T02:56:43;100870.02;;;4.46;46.17
55687;BME280;41911;52.362;4.978;2023-02-25T02:57:17;100871.26;;;4.13;46.54
55687;BME280;41911;52.362;4.978;2023-02-25T02:57:53;100871.84;;;3.84;46.73
55687;BME280;41911;52.362;4.978;2023-02-25T02:58:28;100869.96;;;4.02;47.11
55687;BME280;41911;52.362;4.978;2023-02-25T02:59:04;100867.93;;;3.26;47.13
55687;BME280;41911;52.362;4.978;2023-02-25T02:59:40;100867.06;;;4.03;46.55
55687;BME280;41911;52.362;4.978;2023-02-25T03:00:16;100865.14;;;4.20;46.21
55687;BME280;41911;52.362;4.978;2023-02-25T03:00:51;100864.60;;;4.16;46.28
55687;BME280;41911;52.362;4.978;2023-02-25T03:01:27;100866.53;;;4.23;46.33
55687;BME280;41911;52.362;4.978;2023-02-25T03:02:07;100864.87;;;4.08;45.56
55687;BME280;41911;52.362;4.978;2023-02-25T03:02:41;100865.30;;;4.09;45.67
55687;BME280;41911;52.362;4.978;2023-02-25T03:03:16;100863.00;;;4.06;45.36
55687;BME280;41911;52.362;4.978;2023-02-25T03:03:52;100867.12;;;4.20;45.70
55687;BME280;41911;52.362;4.978;2023-02-25T03:04:29;100865.81;;;3.75;46.19